Latest Weather Observations for Brisbane Airport

IDQ60901

Issued at 4:31 pm EST Thursday 21 February 2019 (issued every 10 minutes, with the page automatically refreshed every 10 minutes)

About weather observations | Map of Brisbane area stations | Latest observations for Brisbane area | Other Formats
Station Details ID: 040842 Name: BRISBANE AERO Lat: -27.39 Lon: 153.13 Height: 4.51 m
Data from the previous 72 hours. | See also: Recent months at Brisbane Airport
Date/Time
EST
Temp
°C
App
Temp
°C
Dew
Point
°C
Rel
Hum
%
Delta-T
°C
Wind Press
QNH
hPa
Press
MSL
hPa
Rain since
9am
mm
Dir  Spd
km/h
Gust
km/h
Spd
kts
Gust
kts
21/04:09pm 29.3 27.6 19.7 56 6.3 SE 28 50 15 27 1005.8 1005.8 0.0
21/04:00pm 29.4 28.0 19.6 55 6.4 SE 26 46 14 25 1005.8 1005.8 0.0
21/03:30pm 29.8 28.1 19.7 54 6.6 SE 28 46 15 25 1005.8 1005.8 0.0
21/03:00pm 29.8 29.0 20.1 56 6.4 SE 24 43 13 23 1005.9 1005.9 0.0
21/02:45pm 30.1 28.7 20.5 56 6.4 SE 28 46 15 25 1006.0 1006.0 0.0
21/02:30pm 29.7 28.2 20.2 56 6.3 SE 28 44 15 24 1006.3 1006.3 0.0
21/02:00pm 31.1 29.3 20.4 53 7.1 SE 30 48 16 26 1006.6 1006.6 0.0
21/01:45pm 30.2 28.9 20.6 56 6.4 SE 28 48 15 26 1006.9 1006.9 0.0
21/01:30pm 30.2 28.8 19.7 53 6.9 SE 26 41 14 22 1007.2 1007.2 0.0
21/01:00pm 29.9 28.1 20.4 56 6.3 SE 30 54 16 29 1007.5 1007.5 0.0
21/12:30pm 29.3 28.5 20.0 57 6.1 SE 24 37 13 20 1007.8 1007.8 0.0
21/12:00pm 29.0 28.1 20.7 61 5.5 SE 26 41 14 22 1008.0 1008.0 0.0
21/11:30am 27.9 28.0 21.8 69 4.1 SE 24 37 13 20 1008.3 1008.3 0.0
21/11:00am 28.3 28.0 21.9 68 4.3 SE 26 37 14 20 1008.3 1008.3 0.0
21/10:30am 28.7 29.1 20.9 62 5.2 ESE 20 37 11 20 1008.3 1008.3 0.0
21/10:00am 29.5 29.4 20.8 59 5.8 SE 22 35 12 19 1008.3 1008.3 0.0
21/09:30am 28.4 28.9 20.9 64 5.0 SE 19 33 10 18 1008.3 1008.3 0.0
21/09:00am 27.9 28.7 21.3 67 4.4 SE 19 30 10 16 1008.1 1008.1 0.2
21/08:30am 28.3 29.8 21.3 65 4.7 SSE 15 28 8 15 1008.1 1008.1 0.2
21/08:00am 27.0 28.8 21.8 73 3.5 SSE 15 26 8 14 1007.9 1007.9 0.2
21/07:30am 26.1 27.9 21.8 77 2.9 S 15 28 8 15 1007.7 1007.7 0.2
21/07:00am 25.7 27.6 22.1 80 2.4 S 15 26 8 14 1007.6 1007.6 0.2
21/06:30am 25.7 28.4 22.1 80 2.4 S 11 17 6 9 1007.3 1007.3 0.2
21/06:00am 25.0 27.6 21.9 83 2.1 S 11 19 6 10 1007.0 1007.0 0.2
21/05:30am 25.2 27.5 21.3 79 2.6 SSW 11 13 6 7 1006.7 1006.7 0.2
21/05:00am 25.1 27.9 21.5 80 2.4 SSW 9 13 5 7 1006.4 1006.4 0.2
21/04:30am 25.1 27.0 21.3 79 2.5 SSW 13 15 7 8 1006.1 1006.1 0.2
21/04:00am 25.4 27.6 21.8 80 2.4 SSE 13 19 7 10 1005.9 1005.9 0.2
21/03:30am 25.7 28.2 22.4 82 2.2 SE 13 20 7 11 1005.9 1005.9 0.2
21/03:00am 25.9 27.7 21.9 78 2.7 ESE 15 28 8 15 1005.7 1005.7 0.2
21/02:30am 25.5 27.7 21.8 80 2.5 ESE 13 22 7 12 1005.8 1005.8 0.2
21/02:00am 25.5 27.3 21.1 76 2.9 SSE 13 26 7 14 1006.7 1006.7 0.2
21/01:30am 25.6 27.4 21.1 76 3.0 S 13 20 7 11 1007.3 1007.3 0.2
21/01:00am 25.8 28.0 21.1 75 3.1 S 11 19 6 10 1007.6 1007.6 0.2
21/12:30am 25.8 27.8 21.6 77 2.8 S 13 19 7 10 1007.8 1007.8 0.2
21/12:00am 25.8 27.4 22.2 80 2.4 S 17 28 9 15 1008.5 1008.5 0.2
 
Date/Time
EST
Temp
°C
App
Temp
°C
Dew
Point
°C
Rel
Hum
%
Delta-T
°C
Wind Press
QNH
hPa
Press
MSL
hPa
Rain since
9am
mm
Dir  Spd
km/h
Gust
km/h
Spd
kts
Gust
kts
20/11:30pm 25.9 28.1 22.6 82 2.2 SSW 15 20 8 11 1008.7 1008.7 0.2
20/11:00pm 26.0 29.1 22.8 82 2.2 S 11 17 6 9 1008.6 1008.6 0.2
20/10:30pm 26.1 28.8 22.9 82 2.2 SSE 13 22 7 12 1008.4 1008.4 0.2
20/10:00pm 26.1 28.5 23.0 83 2.1 SE 15 24 8 13 1007.6 1007.6 0.2
20/09:30pm 26.0 28.7 22.8 82 2.2 ESE 13 20 7 11 1007.6 1007.6 0.2
20/09:00pm 26.0 29.0 22.6 81 2.3 SE 11 20 6 11 1007.7 1007.7 0.2
20/08:30pm 26.1 28.6 22.5 80 2.4 ESE 13 19 7 10 1007.4 1007.4 0.2
20/08:00pm 26.1 28.6 22.4 80 2.5 ESE 13 19 7 10 1007.0 1007.0 0.2
20/07:30pm 26.0 28.7 22.1 79 2.6 ESE 11 17 6 9 1006.7 1006.7 0.2
20/07:00pm 26.2 28.7 21.7 76 3.0 ESE 11 19 6 10 1006.5 1006.5 0.2
20/06:30pm 26.5 28.6 21.7 75 3.2 ESE 13 20 7 11 1006.1 1006.1 0.2
20/06:00pm 27.0 29.0 21.6 72 3.6 ESE 13 20 7 11 1006.0 1006.0 0.2
20/05:30pm 27.4 28.7 21.7 71 3.8 E 17 26 9 14 1005.9 1005.9 0.2
20/05:00pm 28.0 29.3 20.9 65 4.7 ESE 15 28 8 15 1005.6 1005.6 0.2
20/04:30pm 28.5 28.8 20.8 63 5.1 ESE 20 28 11 15 1005.5 1005.5 0.2
20/04:00pm 28.8 29.3 20.8 62 5.3 ESE 19 28 10 15 1005.4 1005.4 0.2
20/03:30pm 28.6 29.4 21.3 64 4.9 ESE 19 30 10 16 1005.4 1005.4 0.2
20/03:00pm 29.6 31.1 21.2 60 5.6 ESE 15 28 8 15 1005.5 1005.5 0.2
20/02:30pm 29.6 29.8 20.2 57 6.2 E 19 28 10 15 1005.8 1005.8 0.2
20/02:00pm 29.7 29.8 19.1 53 6.9 E 17 30 9 16 1006.2 1006.2 0.2
20/01:30pm 29.5 29.2 19.6 55 6.5 E 20 30 11 16 1006.7 1006.7 0.2
20/01:00pm 29.4 28.7 19.6 55 6.4 E 22 32 12 17 1007.2 1007.2 0.2
20/12:30pm 29.5 29.5 20.1 57 6.2 ESE 20 32 11 17 1007.6 1007.6 0.2
20/12:00pm 28.9 29.3 19.9 58 5.9 ESE 17 30 9 16 1007.8 1007.8 0.2
20/11:30am 29.3 29.6 20.5 59 5.8 E 19 30 10 16 1008.2 1008.2 0.2
20/11:00am 29.3 29.4 20.0 57 6.1 E 19 30 10 16 1008.6 1008.6 0.2
20/10:30am 29.1 29.7 20.3 59 5.8 ESE 17 28 9 15 1008.9 1008.9 0.2
20/10:00am 29.0 29.5 20.0 58 5.9 ESE 17 28 9 15 1009.1 1009.1 0.0
20/09:30am 28.3 28.7 19.9 60 5.5 SE 17 26 9 14 1009.1 1009.1 0.0
20/09:00am 27.8 29.0 19.8 61 5.2 SE 13 20 7 11 1009.0 1009.0 0.0
20/08:30am 27.8 29.0 19.8 61 5.2 SE 13 20 7 11 1009.1 1009.1 0.0
20/08:00am 26.5 27.8 20.9 71 3.7 SE 15 26 8 14 1008.9 1008.9 0.0
20/07:30am 26.0 28.6 21.2 75 3.2 S 9 17 5 9 1008.8 1008.8 0.0
20/07:00am 24.9 27.7 21.6 82 2.2 S 9 11 5 6 1008.5 1008.5 0.0
20/06:30am 23.8 28.3 21.5 87 1.5 CALM 0 6 0 3 1008.3 1008.3 0.0
20/06:00am 23.0 25.7 21.3 90 1.1 SSW 9 11 5 6 1008.1 1008.1 0.0
20/05:30am 23.0 26.3 21.5 91 1.0 SSW 6 9 3 5 1007.8 1007.8 0.0
20/05:00am 23.2 26.4 21.7 91 1.0 SSE 7 9 4 5 1007.5 1007.5 0.0
20/04:30am 23.8 26.7 21.8 88 1.3 SSE 9 13 5 7 1007.3 1007.3 0.0
20/04:00am 24.3 27.4 22.1 87 1.5 ESE 9 13 5 7 1007.2 1007.2 0.0
20/03:30am 24.6 27.7 22.1 86 1.7 ESE 9 11 5 6 1007.0 1007.0 0.0
20/03:00am 23.2 27.8 21.7 91 1.0 CALM 0 0 0 0 1006.6 1006.6 0.0
20/02:30am 23.1 27.8 21.9 93 0.8 CALM 0 0 0 0 1006.4 1006.4 0.0
20/02:00am 23.1 27.7 21.7 92 0.9 CALM 0 0 0 0 1006.3 1006.3 0.0
20/01:30am 23.7 28.5 22.1 91 1.1 CALM 0 0 0 0 1006.5 1006.5 0.0
20/01:00am 23.9 28.1 21.8 88 1.4 NE 2 9 1 5 1006.8 1006.8 0.0
20/12:30am 23.6 28.3 21.9 90 1.1 CALM 0 0 0 0 1007.3 1007.3 0.0
20/12:00am 23.3 26.8 21.8 91 1.0 NE 6 7 3 4 1007.6 1007.6 0.0
 
Date/Time
EST
Temp
°C
App
Temp
°C
Dew
Point
°C
Rel
Hum
%
Delta-T
°C
Wind Press
QNH
hPa
Press
MSL
hPa
Rain since
9am
mm
Dir  Spd
km/h
Gust
km/h
Spd
kts
Gust
kts
19/11:30pm 23.6 28.2 21.8 90 1.2 CALM 0 0 0 0 1007.8 1007.8 0.0
19/11:00pm 23.6 28.2 21.8 90 1.2 CALM 0 0 0 0 1007.9 1007.9 0.0
19/10:30pm 23.8 27.2 21.7 88 1.4 NE 6 7 3 4 1008.0 1008.0 0.0
19/10:00pm 23.5 26.8 21.5 88 1.3 NE 6 7 3 4 1008.1 1008.1 0.0
19/09:30pm 23.9 27.2 21.5 86 1.6 NE 6 7 3 4 1008.2 1008.2 0.0
19/09:00pm 24.2 27.0 21.5 85 1.8 ENE 9 11 5 6 1008.0 1008.0 0.0
19/08:30pm 25.4 28.0 21.2 77 2.8 ENE 9 13 5 7 1007.8 1007.8 0.0
19/08:00pm 25.3 27.6 21.4 79 2.6 ENE 11 13 6 7 1007.4 1007.4 0.0
19/07:30pm 25.6 27.4 21.2 76 2.9 ENE 13 17 7 9 1007.2 1007.2 0.0
19/07:00pm 25.8 27.6 21.1 75 3.1 NE 13 17 7 9 1007.0 1007.0 0.0
19/06:30pm 26.0 27.4 21.0 74 3.3 ENE 15 19 8 10 1006.7 1006.7 0.0
19/06:00pm 26.4 27.3 20.8 71 3.7 ENE 17 22 9 12 1006.3 1006.3 0.0
19/05:30pm 26.8 27.3 20.1 66 4.4 ENE 17 24 9 13 1006.0 1006.0 0.0
19/05:00pm 27.6 27.8 20.5 65 4.7 ENE 20 30 11 16 1005.7 1005.7 0.0
19/04:30pm 28.0 28.3 20.8 65 4.8 ENE 20 28 11 15 1005.3 1005.3 0.0
19/04:00pm 28.8 28.9 20.3 60 5.6 ENE 20 28 11 15 1005.2 1005.2 0.0
19/03:30pm 28.8 29.0 20.1 59 5.7 ENE 19 26 10 14 1005.2 1005.2 0.0
19/03:00pm 29.0 29.3 20.5 60 5.6 ENE 19 28 10 15 1005.2 1005.2 0.0
19/02:30pm 29.3 28.8 19.0 53 6.7 ENE 20 26 11 14 1005.4 1005.4 0.0
19/02:00pm 30.3 30.1 19.8 53 6.9 ENE 20 28 11 15 1005.6 1005.6 0.0
19/01:30pm 29.6 29.2 18.8 52 7.0 ENE 19 26 10 14 1006.2 1006.2 0.0
19/01:00pm 29.2 27.8 17.9 50 7.2 NE 22 28 12 15 1006.8 1006.8 0.0
19/12:30pm 29.7 29.5 18.5 51 7.2 ENE 17 22 9 12 1007.3 1007.3 0.0
19/12:00pm 29.3 28.8 17.9 50 7.3 NE 17 20 9 11 1007.7 1007.7 0.0
19/11:30am 29.1 29.2 17.4 49 7.4 NNE 13 19 7 10 1008.1 1008.1 0.0
19/11:00am 29.2 29.2 17.3 48 7.5 NNE 13 20 7 11 1008.5 1008.5 0.0
19/10:30am 28.1 28.5 18.2 55 6.3 NE 13 19 7 10 1008.9 1008.9 0.0
19/10:00am 28.1 29.3 19.0 57 5.9 NNE 11 17 6 9 1009.1 1009.1 0.0
19/09:30am 27.2 29.0 18.8 60 5.4 NW 7 11 4 6 1009.2 1009.2 0.0
19/09:00am 27.0 29.4 18.7 60 5.3 N 4 9 2 5 1009.5 1009.5 0.0
19/08:30am 25.8 27.3 18.9 65 4.4 S 9 13 5 7 1009.5 1009.5 0.0
19/08:00am 24.8 25.8 18.7 69 3.9 SW 11 15 6 8 1009.5 1009.5 0.0
19/07:30am 23.6 24.7 18.9 75 3.0 SW 11 15 6 8 1009.3 1009.3 0.0
19/07:00am 22.3 22.8 19.2 82 2.0 SW 15 19 8 10 1009.1 1009.1 0.0
19/06:30am 21.1 21.9 19.0 88 1.3 SSW 13 19 7 10 1008.9 1008.9 0.0
19/06:00am 20.0 20.8 18.2 89 1.1 SSW 11 13 6 7 1008.8 1008.8 0.0
19/05:30am 20.4 21.3 18.3 88 1.3 SSW 11 13 6 7 1008.8 1008.8 0.0
19/05:00am 19.6 20.3 18.0 90 1.0 SSW 11 13 6 7 1008.8 1008.8 0.0
19/04:30am 19.7 20.5 18.1 90 1.0 SSW 11 13 6 7 1008.6 1008.6 0.0
19/04:00am 20.0 20.4 18.2 89 1.1 SSW 13 15 7 8 1008.6 1008.6 0.0
19/03:30am 20.2 20.7 18.3 89 1.2 SSW 13 15 7 8 1008.6 1008.6 0.0
19/03:00am 20.7 22.2 18.8 89 1.2 SSW 9 11 5 6 1008.8 1008.8 0.0
19/02:30am 21.2 22.7 18.8 86 1.5 SSW 9 11 5 6 1009.0 1009.0 0.0
19/02:00am 21.1 22.1 18.7 86 1.5 SSW 11 13 6 7 1009.2 1009.2 0.0
19/01:30am 20.9 22.4 18.8 88 1.3 SW 9 11 5 6 1009.4 1009.4 0.0
19/01:00am 22.7 24.8 19.4 81 2.1 SSW 7 7 4 4 1009.7 1009.7 0.0
19/12:30am 22.4 25.6 18.9 80 2.2 CALM 0 0 0 0 1010.0 1010.0 0.0
19/12:00am 23.6 25.9 19.4 77 2.7 ESE 6 7 3 4 1010.5 1010.5 0.0
 
Date/Time
EST
Temp
°C
App
Temp
°C
Dew
Point
°C
Rel
Hum
%
Delta-T
°C
Wind Press
QNH
hPa
Press
MSL
hPa
Rain since
9am
mm
Dir  Spd
km/h
Gust
km/h
Spd
kts
Gust
kts
18/11:30pm 23.7 25.3 19.2 76 2.9 E 9 11 5 6 1010.8 1010.8 0.0
18/11:00pm 23.9 25.8 19.0 74 3.1 E 7 9 4 5 1011.0 1011.0 0.0
18/10:30pm 24.1 25.5 18.7 72 3.4 E 9 15 5 8 1011.1 1011.1 0.0
18/10:00pm 24.3 26.2 19.0 72 3.4 E 7 13 4 7 1011.3 1011.3 0.0
18/09:30pm 24.5 25.8 18.5 69 3.8 E 9 15 5 8 1011.3 1011.3 0.0
18/09:00pm 24.6 25.6 18.6 69 3.8 E 11 19 6 10 1011.3 1011.3 0.0
18/08:30pm 24.8 26.2 18.7 69 3.9 E 9 20 5 11 1011.2 1011.2 0.0
18/08:00pm 25.0 25.4 18.2 66 4.3 E 13 19 7 10 1010.9 1010.9 0.0
18/07:30pm 25.0 26.5 18.9 69 3.9 E 9 19 5 10 1010.6 1010.6 0.0
18/07:00pm 25.2 26.0 18.1 64 4.5 E 11 19 6 10 1010.1 1010.1 0.0
18/06:30pm 25.6 25.8 17.6 61 5.0 E 13 20 7 11 1009.7 1009.7 0.0
18/06:00pm 26.3 26.4 16.4 54 6.1 E 11 19 6 10 1009.2 1009.2 0.0
18/05:30pm 26.9 25.9 15.6 50 6.9 E 15 26 8 14 1009.2 1009.2 0.0
18/05:00pm 27.0 26.7 17.3 55 6.1 ESE 15 22 8 12 1009.0 1009.0 0.0

Latest Capital City Observations: Canberra | Sydney | Melbourne | Brisbane | Adelaide | Perth | Hobart | Darwin

Other formats

Comma delimited format used in spreadsheet applications
http://www.bom.gov.au/fwo/IDQ60901/IDQ60901.94578.axf

JavaScript Object Notation format (JSON) in row-major order
http://www.bom.gov.au/fwo/IDQ60901/IDQ60901.94578.json

Data quality

Most of these data are generated automatically and are frequently updated. Quality checks on data are not normally performed. It is possible for incorrect values to appear. Refer to information at About Latest Weather Observations and please check the disclaimer before using these data.